Time;durP1;ratioP1;P1;durP2;ratioP2;P2;SDS_P1;SDS_P2;PMS_P1;PMS_P2;Temp;Humidity;BMP_temperature;BMP_pressure;BME280_temperature;BME280_humidity;BME280_pressure;Samples;Min_cycle;Max_cycle;Signal;HPM_P1;HPM_P2
2022/09/18 00:01:57;;;;;;;6.90;0.70;;;;;;;8.33;87.35;99237.41;106148;1270;22717;-65
2022/09/18 00:04:31;;;;;;;11.50;1.00;;;;;;;8.33;87.33;99229.91;105952;1270;22523;-67
2022/09/18 00:07:03;;;;;;;7.80;0.80;;;;;;;8.30;87.41;99232.96;105927;1270;25502;-67
2022/09/18 00:09:36;;;;;;;5.50;0.70;;;;;;;8.29;87.32;99229.75;106162;1270;22540;-67
2022/09/18 00:12:09;;;;;;;8.20;0.90;;;;;;;8.27;87.39;99230.35;106097;1272;25373;-67
2022/09/18 00:14:41;;;;;;;8.00;0.70;;;;;;;8.25;87.41;99227.73;106500;1270;25375;-68
2022/09/18 00:17:13;;;;;;;9.90;0.90;;;;;;;8.21;87.39;99232.21;106469;1270;23551;-67
2022/09/18 00:19:46;;;;;;;9.40;1.10;;;;;;;8.18;87.35;99232.19;106310;1270;25509;-67
2022/09/18 00:22:19;;;;;;;8.00;0.70;;;;;;;8.14;87.34;99233.91;106257;1270;22614;-67
2022/09/18 00:24:51;;;;;;;6.50;0.90;;;;;;;8.12;87.28;99230.30;106319;1270;25380;-67
2022/09/18 00:27:23;;;;;;;5.20;1.00;;;;;;;8.11;87.41;99230.89;106360;1270;24268;-64
2022/09/18 00:29:54;;;;;;;7.80;0.80;;;;;;;8.09;87.38;99228.23;106192;1270;22532;-65
2022/09/18 00:32:27;;;;;;;8.60;0.90;;;;;;;8.07;87.41;99225.48;106120;1270;22681;-66
2022/09/18 00:34:58;;;;;;;4.20;0.80;;;;;;;8.06;87.53;99224.45;105958;1269;25233;-65
2022/09/18 00:37:30;;;;;;;4.40;0.90;;;;;;;8.04;87.34;99222.02;105806;1271;25319;-66
2022/09/18 00:40:03;;;;;;;10.40;1.10;;;;;;;8.01;87.39;99224.10;105938;1270;22601;-65
2022/09/18 00:42:35;;;;;;;6.40;1.10;;;;;;;7.98;87.33;99225.88;106432;1270;22556;-67
2022/09/18 00:45:11;;;;;;;6.20;0.80;;;;;;;7.94;87.14;99223.14;106310;1270;22570;-68
2022/09/18 00:47:46;;;;;;;11.00;1.00;;;;;;;7.91;87.14;99219.92;106407;1269;22660;-69
2022/09/18 00:50:22;;;;;;;8.90;1.60;;;;;;;7.88;87.08;99219.38;106308;1270;26805;-68
2022/09/18 00:52:58;;;;;;;11.40;1.80;;;;;;;7.85;87.15;99221.66;106276;1273;25943;-67
2022/09/18 00:55:33;;;;;;;10.90;2.70;;;;;;;7.83;87.12;99220.02;106507;1270;22743;-67
2022/09/18 00:58:05;;;;;;;10.60;2.00;;;;;;;7.81;87.20;99219.83;106407;1270;25256;-68
2022/09/18 01:00:38;;;;;;;17.10;2.50;;;;;;;7.78;87.04;99218.42;106269;1270;22516;-68
2022/09/18 01:03:11;;;;;;;10.20;1.70;;;;;;;7.74;86.90;99213.87;106351;1270;24337;-67
2022/09/18 01:06:11;;;;;;;10.00;2.20;;;;;;;7.71;86.87;99214.55;106296;1270;23582;-69
2022/09/18 01:08:55;;;;;;;6.80;1.50;;;;;;;7.65;86.91;99209.55;106356;1270;25416;-67
2022/09/18 01:11:43;;;;;;;6.20;1.60;;;;;;;7.61;87.00;99212.43;104835;1270;2174642;-68
2022/09/18 01:14:29;;;;;;;8.40;1.00;;;;;;;7.57;86.90;99211.36;106442;1270;22532;-67
2022/09/18 01:17:14;;;;;;;9.50;0.90;;;;;;;7.56;87.16;99205.49;106407;1270;22806;-66
2022/09/18 01:20:26;;;;;;;7.50;0.90;;;;;;;7.54;87.17;99207.39;106067;1270;22543;-68
2022/09/18 01:23:15;;;;;;;12.10;1.10;;;;;;;7.52;87.24;99204.61;106316;1271;22597;-66
2022/09/18 01:26:04;;;;;;;5.10;1.00;;;;;;;7.51;87.40;99204.71;106271;1270;23064;-68
2022/09/18 01:28:43;;;;;;;6.80;0.90;;;;;;;7.50;87.44;99206.21;106333;1270;22686;-69
2022/09/18 01:31:22;;;;;;;6.40;0.80;;;;;;;7.48;87.42;99210.38;106284;1270;22772;-67
2022/09/18 01:33:58;;;;;;;6.50;0.80;;;;;;;7.47;87.43;99213.63;106328;1270;22683;-69
2022/09/18 01:36:36;;;;;;;8.60;0.90;;;;;;;7.46;87.50;99213.27;106411;1270;22530;-67
2022/09/18 01:39:14;;;;;;;8.00;0.80;;;;;;;7.45;87.53;99213.80;106391;1270;25267;-67
2022/09/18 01:41:50;;;;;;;10.60;0.80;;;;;;;7.43;87.55;99217.56;106537;1270;24235;-68
2022/09/18 01:44:28;;;;;;;12.00;1.10;;;;;;;7.42;87.56;99217.92;106252;1270;22551;-67
2022/09/18 01:47:05;;;;;;;5.90;0.80;;;;;;;7.41;87.68;99212.19;106437;1270;22531;-67
2022/09/18 01:49:46;;;;;;;8.40;0.90;;;;;;;7.40;87.82;99212.98;106278;1270;22550;-68
2022/09/18 01:52:24;;;;;;;5.10;0.90;;;;;;;7.40;88.07;99216.00;106351;1270;22527;-67
2022/09/18 01:54:59;;;;;;;4.90;0.80;;;;;;;7.40;88.42;99216.96;106282;1270;27895;-68
2022/09/18 01:57:39;;;;;;;5.60;0.70;;;;;;;7.41;88.66;99216.48;106195;1271;22658;-68
2022/09/18 02:00:14;;;;;;;3.60;0.70;;;;;;;7.42;88.83;99215.33;106285;1270;25928;-69
2022/09/18 02:02:54;;;;;;;9.10;0.80;;;;;;;7.43;88.99;99211.11;106361;1270;24494;-68
2022/09/18 02:05:30;;;;;;;9.70;0.80;;;;;;;7.48;89.29;99210.47;106231;1270;22746;-68
2022/09/18 02:08:11;;;;;;;5.30;0.60;;;;;;;7.53;89.76;99205.70;106322;1270;22595;-68
2022/09/18 02:10:50;;;;;;;5.20;0.70;;;;;;;7.62;90.00;99205.83;106161;1270;24272;-70
2022/09/18 02:13:25;;;;;;;3.90;0.50;;;;;;;7.71;90.24;99207.77;106194;1270;24335;-68
2022/09/18 02:16:03;;;;;;;5.40;0.40;;;;;;;7.81;90.40;99208.56;105858;1271;26597;-68
2022/09/18 02:18:40;;;;;;;5.10;0.40;;;;;;;7.91;90.54;99209.71;105638;1271;24803;-66
2022/09/18 02:21:17;;;;;;;4.90;0.40;;;;;;;7.99;90.46;99204.11;105980;1270;24195;-68
2022/09/18 02:23:49;;;;;;;2.20;0.50;;;;;;;8.06;90.31;99208.13;106118;1271;22572;-66
2022/09/18 02:26:22;;;;;;;2.60;0.40;;;;;;;8.12;90.24;99206.64;106008;1270;24441;-66
2022/09/18 02:28:55;;;;;;;3.20;0.40;;;;;;;8.17;90.28;99200.23;106044;1270;23078;-67
2022/09/18 02:31:27;;;;;;;1.00;0.30;;;;;;;8.22;90.20;99201.19;106199;1271;25431;-67
2022/09/18 02:33:58;;;;;;;1.60;0.50;;;;;;;8.27;90.40;99200.08;106016;1272;24291;-67
2022/09/18 02:36:48;;;;;;;2.40;0.30;;;;;;;8.32;90.12;99199.52;105969;1271;25438;-69
2022/09/18 02:39:33;;;;;;;4.30;0.40;;;;;;;8.37;90.20;99193.97;106248;1270;22548;-67
2022/09/18 02:42:13;;;;;;;3.30;0.30;;;;;;;8.42;90.16;99193.05;105950;1270;24280;-67
2022/09/18 02:44:51;;;;;;;3.30;0.30;;;;;;;8.45;90.05;99188.33;105986;1270;22528;-67
2022/09/18 02:47:36;;;;;;;1.60;0.40;;;;;;;8.48;90.11;99189.79;105934;1270;22524;-68
2022/09/18 02:50:15;;;;;;;2.50;0.20;;;;;;;8.50;89.97;99186.23;105908;1270;23051;-68
2022/09/18 02:52:54;;;;;;;7.00;0.30;;;;;;;8.53;89.86;99182.96;106201;1271;23301;-67
2022/09/18 02:55:30;;;;;;;2.40;0.30;;;;;;;8.55;90.02;99181.46;106006;1271;25733;-67
2022/09/18 02:58:05;;;;;;;2.20;0.30;;;;;;;8.58;90.18;99181.23;106366;1270;22535;-67
2022/09/18 03:00:39;;;;;;;1.60;0.20;;;;;;;8.59;90.13;99180.74;106051;1271;24265;-67
2022/09/18 03:03:17;;;;;;;2.30;0.50;;;;;;;8.61;90.18;99182.31;106079;1270;22542;-67
2022/09/18 03:05:49;;;;;;;1.60;0.10;;;;;;;8.62;90.03;99177.68;105894;1271;22632;-67
2022/09/18 03:08:20;;;;;;;1.60;0.20;;;;;;;8.64;90.30;99176.23;105876;1271;22529;-67
2022/09/18 03:10:51;;;;;;;1.50;0.10;;;;;;;8.65;90.20;99171.70;105835;1271;23948;-67
2022/09/18 03:13:22;;;;;;;1.00;0.20;;;;;;;8.67;90.15;99175.26;105726;1270;24094;-68
2022/09/18 03:15:54;;;;;;;0.60;0.20;;;;;;;8.68;90.00;99179.16;105830;1270;22537;-67
2022/09/18 03:18:26;;;;;;;0.90;0.10;;;;;;;8.70;90.03;99179.23;105667;1271;22531;-67
2022/09/18 03:20:58;;;;;;;3.10;0.20;;;;;;;8.71;90.03;99180.25;105608;1271;25323;-67
2022/09/18 03:23:29;;;;;;;1.20;0.30;;;;;;;8.72;90.16;99183.04;105754;1270;22537;-68
2022/09/18 03:26:01;;;;;;;0.40;0.20;;;;;;;8.72;90.26;99180.32;105879;1270;22525;-69
2022/09/18 03:28:35;;;;;;;2.20;0.20;;;;;;;8.72;90.35;99177.53;106071;1270;22888;-68
2022/09/18 03:31:06;;;;;;;1.20;0.10;;;;;;;8.73;90.35;99181.28;106044;1270;25252;-67
2022/09/18 03:33:37;;;;;;;1.50;0.10;;;;;;;8.75;90.49;99185.90;105952;1271;24267;-67
2022/09/18 03:36:08;;;;;;;4.00;0.20;;;;;;;8.75;90.47;99186.81;105808;1270;26505;-68
2022/09/18 03:38:40;;;;;;;1.90;0.20;;;;;;;8.77;90.46;99182.53;106394;1271;22595;-67
2022/09/18 03:41:11;;;;;;;0.70;0.10;;;;;;;8.78;90.27;99184.41;106192;1270;22552;-68
2022/09/18 03:43:42;;;;;;;0.50;0.10;;;;;;;8.79;90.30;99181.63;105828;1271;22776;-68
2022/09/18 03:46:13;;;;;;;2.90;0.20;;;;;;;8.80;90.22;99180.08;105829;1270;25638;-67
2022/09/18 03:48:44;;;;;;;1.30;0.10;;;;;;;8.83;90.29;99179.09;105959;1270;24257;-70
2022/09/18 03:51:16;;;;;;;0.30;0.00;;;;;;;8.84;90.42;99180.38;105827;1271;22545;-69
2022/09/18 03:53:49;;;;;;;1.80;0.10;;;;;;;8.86;90.36;99178.11;105817;1270;25363;-67
2022/09/18 03:56:21;;;;;;;1.00;0.10;;;;;;;8.87;90.26;99175.19;105876;1270;24441;-67
2022/09/18 03:58:53;;;;;;;0.60;0.10;;;;;;;8.89;90.30;99179.15;106011;1271;27392;-70
2022/09/18 04:01:24;;;;;;;1.00;0.10;;;;;;;8.90;90.31;99179.40;105665;1271;22528;-67
2022/09/18 04:03:56;;;;;;;0.90;0.10;;;;;;;8.90;90.38;99179.92;105854;1271;25408;-67
2022/09/18 04:06:27;;;;;;;2.30;0.20;;;;;;;8.91;90.16;99178.10;105574;1271;25043;-67
2022/09/18 04:08:59;;;;;;;0.20;0.10;;;;;;;8.92;90.16;99176.05;105584;1271;22579;-68
2022/09/18 04:11:30;;;;;;;0.40;0.10;;;;;;;8.93;90.14;99180.10;105765;1268;22526;-67
2022/09/18 04:14:01;;;;;;;1.80;0.00;;;;;;;8.95;90.20;99182.23;105872;1270;22868;-68
2022/09/18 04:16:32;;;;;;;1.40;0.20;;;;;;;8.96;90.22;99182.30;105985;1270;25248;-67
2022/09/18 04:19:03;;;;;;;0.40;0.10;;;;;;;8.97;90.19;99179.66;105768;1270;24057;-68
2022/09/18 04:21:35;;;;;;;1.60;0.10;;;;;;;8.98;90.24;99182.60;105764;1271;22543;-67
2022/09/18 04:24:06;;;;;;;0.40;0.10;;;;;;;9.00;90.41;99181.56;105788;1271;26064;-68
2022/09/18 04:26:37;;;;;;;0.80;0.10;;;;;;;9.00;90.37;99184.40;106017;1270;25484;-68
2022/09/18 04:29:08;;;;;;;1.90;0.10;;;;;;;8.98;90.23;99181.85;105884;1270;22547;-67
2022/09/18 04:31:40;;;;;;;1.80;0.20;;;;;;;8.98;90.20;99175.67;106035;1270;24349;-67
2022/09/18 04:34:11;;;;;;;0.90;0.20;;;;;;;8.97;90.38;99175.83;105763;1271;25315;-68
2022/09/18 04:36:43;;;;;;;0.80;0.10;;;;;;;8.97;90.38;99179.02;105627;1271;22776;-67
2022/09/18 04:39:16;;;;;;;1.80;0.10;;;;;;;8.97;90.54;99181.48;105900;1271;24231;-68
2022/09/18 04:41:48;;;;;;;1.30;0.20;;;;;;;8.97;90.53;99174.91;105989;1271;22523;-67
2022/09/18 04:44:19;;;;;;;1.70;0.30;;;;;;;8.96;90.54;99180.11;106015;1270;22652;-67
2022/09/18 04:46:50;;;;;;;2.70;0.40;;;;;;;8.95;90.55;99180.42;105917;1271;22563;-67
2022/09/18 04:49:21;;;;;;;1.40;0.40;;;;;;;8.92;90.39;99181.77;105856;1270;23454;-68
2022/09/18 04:51:52;;;;;;;1.90;0.20;;;;;;;8.90;90.30;99182.69;105922;1270;23033;-67
2022/09/18 04:54:23;;;;;;;2.20;0.20;;;;;;;8.87;90.27;99182.27;105643;1271;22602;-69
2022/09/18 04:56:55;;;;;;;1.70;0.20;;;;;;;8.84;90.54;99183.71;106037;1271;26521;-67
2022/09/18 04:59:26;;;;;;;0.50;0.10;;;;;;;8.83;90.51;99181.27;106097;1269;24400;-68
2022/09/18 05:01:57;;;;;;;1.60;0.20;;;;;;;8.81;90.51;99187.33;106060;1270;22808;-68
2022/09/18 05:04:28;;;;;;;5.00;0.20;;;;;;;8.81;90.71;99188.95;105906;1271;22549;-67
2022/09/18 05:06:59;;;;;;;1.30;0.20;;;;;;;8.82;90.78;99186.48;105975;1270;25262;-68
2022/09/18 05:09:30;;;;;;;2.70;0.30;;;;;;;8.84;90.87;99191.85;105938;1270;22768;-68
2022/09/18 05:12:02;;;;;;;1.60;0.10;;;;;;;8.85;90.84;99187.66;106130;1270;22539;-67
2022/09/18 05:14:33;;;;;;;1.20;0.30;;;;;;;8.86;90.79;99190.11;106115;1270;22684;-69
2022/09/18 05:17:04;;;;;;;1.90;0.20;;;;;;;8.87;91.00;99191.17;106085;1271;22867;-68
2022/09/18 05:19:36;;;;;;;3.50;0.20;;;;;;;8.88;91.23;99191.65;106001;1271;25260;-68
2022/09/18 05:22:08;;;;;;;1.60;0.30;;;;;;;8.90;91.39;99192.46;105997;1270;25352;-66
2022/09/18 05:24:41;;;;;;;1.50;0.30;;;;;;;8.91;91.74;99194.44;105761;1271;22553;-66
2022/09/18 05:27:12;;;;;;;1.80;0.10;;;;;;;8.89;92.06;99195.29;105888;1271;24306;-67
2022/09/18 05:29:44;;;;;;;3.20;0.30;;;;;;;8.86;92.28;99200.38;105789;1270;24262;-66
2022/09/18 05:32:17;;;;;;;0.80;0.20;;;;;;;8.84;92.51;99201.13;105986;1270;24352;-66
2022/09/18 05:34:49;;;;;;;1.00;0.20;;;;;;;8.81;92.78;99207.27;105972;1270;24272;-66
2022/09/18 05:37:20;;;;;;;1.40;0.40;;;;;;;8.79;92.89;99202.02;105803;1271;24366;-65
2022/09/18 05:39:51;;;;;;;0.80;0.40;;;;;;;8.78;92.97;99198.63;105866;1271;22541;-67
2022/09/18 05:42:23;;;;;;;2.20;0.30;;;;;;;8.79;93.24;99199.90;105938;1270;25427;-68
2022/09/18 05:44:54;;;;;;;0.90;0.30;;;;;;;8.81;93.51;99203.40;106043;1271;25526;-69
2022/09/18 05:47:25;;;;;;;4.40;0.30;;;;;;;8.82;93.57;99203.88;106425;1270;22534;-67
2022/09/18 05:49:57;;;;;;;2.40;0.40;;;;;;;8.85;93.68;99202.45;106021;1270;22626;-69
2022/09/18 05:52:28;;;;;;;2.50;0.30;;;;;;;8.88;93.87;99201.46;106006;1271;22536;-67
2022/09/18 05:54:59;;;;;;;3.10;0.40;;;;;;;8.90;93.80;99197.68;105878;1271;25593;-65
2022/09/18 05:57:30;;;;;;;2.10;0.40;;;;;;;8.93;94.03;99197.55;105975;1271;25257;-66
2022/09/18 06:00:02;;;;;;;1.50;0.40;;;;;;;8.97;94.18;99197.33;106094;1271;22594;-66
2022/09/18 06:02:33;;;;;;;2.60;0.40;;;;;;;8.98;93.94;99200.48;105875;1271;22580;-66
2022/09/18 06:05:06;;;;;;;2.20;0.50;;;;;;;9.01;94.17;99198.89;106112;1271;22703;-66
2022/09/18 06:07:37;;;;;;;1.70;0.50;;;;;;;9.04;94.33;99200.48;106354;1270;24282;-66
2022/09/18 06:10:09;;;;;;;5.30;1.40;;;;;;;9.06;94.24;99202.52;105842;1270;24329;-67
2022/09/18 06:12:41;;;;;;;5.10;1.20;;;;;;;9.07;94.34;99198.48;105896;1270;22547;-67
2022/09/18 06:15:13;;;;;;;3.10;0.70;;;;;;;9.11;94.36;99198.55;105601;1271;24253;-65
2022/09/18 06:17:50;;;;;;;2.30;0.50;;;;;;;9.16;94.49;99198.60;105928;1270;25381;-70
2022/09/18 06:20:22;;;;;;;1.60;0.60;;;;;;;9.20;94.51;99199.45;105792;1270;22687;-68
2022/09/18 06:22:53;;;;;;;3.70;0.50;;;;;;;9.23;94.80;99197.50;105977;1270;25346;-66
2022/09/18 06:25:24;;;;;;;2.20;0.60;;;;;;;9.25;94.77;99197.86;105840;1271;25357;-65
2022/09/18 06:27:58;;;;;;;2.50;0.60;;;;;;;9.27;94.69;99204.41;105900;1271;24271;-67
2022/09/18 06:30:32;;;;;;;2.30;0.40;;;;;;;9.29;94.68;99203.61;105630;1271;25494;-67
2022/09/18 06:33:05;;;;;;;1.70;0.50;;;;;;;9.32;94.80;99202.78;106141;1270;22688;-66
2022/09/18 06:35:38;;;;;;;2.10;0.50;;;;;;;9.38;94.82;99202.27;105814;1271;22543;-67
2022/09/18 06:38:11;;;;;;;2.20;0.50;;;;;;;9.41;94.99;99205.83;105960;1270;24398;-68
2022/09/18 06:40:47;;;;;;;1.60;0.40;;;;;;;9.45;95.06;99205.77;105827;1270;25554;-68
2022/09/18 06:43:19;;;;;;;3.20;0.80;;;;;;;9.48;94.98;99203.00;105803;1271;22543;-68
2022/09/18 06:45:55;;;;;;;5.00;0.80;;;;;;;9.51;95.16;99203.41;105749;1271;22550;-66
2022/09/18 06:48:28;;;;;;;2.20;0.50;;;;;;;9.50;95.11;99204.77;105699;1271;22550;-70
2022/09/18 06:50:59;;;;;;;4.30;0.70;;;;;;;9.51;95.21;99207.92;105736;1271;22580;-66
2022/09/18 06:53:30;;;;;;;4.40;0.90;;;;;;;9.52;95.39;99207.21;105942;1271;22584;-65
2022/09/18 06:56:02;;;;;;;5.70;0.70;;;;;;;9.55;95.57;99211.09;105984;1270;22720;-67
2022/09/18 06:58:33;;;;;;;3.10;0.80;;;;;;;9.58;95.76;99205.29;105680;1271;25427;-63
2022/09/18 07:01:05;;;;;;;3.40;0.40;;;;;;;9.62;95.77;99208.76;105873;1271;22538;-67
2022/09/18 07:03:36;;;;;;;2.50;0.60;;;;;;;9.65;96.01;99210.09;106061;1270;22540;-68
2022/09/18 07:06:10;;;;;;;4.10;0.60;;;;;;;9.68;96.08;99206.66;105752;1272;25250;-62
2022/09/18 07:08:42;;;;;;;2.20;0.70;;;;;;;9.73;96.05;99211.10;105832;1271;22526;-65
2022/09/18 07:11:13;;;;;;;1.60;0.50;;;;;;;9.75;95.96;99216.59;105785;1271;22609;-65
2022/09/18 07:13:46;;;;;;;3.80;0.80;;;;;;;9.77;95.97;99219.84;105905;1271;25323;-68
2022/09/18 07:16:17;;;;;;;1.60;0.50;;;;;;;9.80;95.99;99224.06;105813;1271;25556;-66
2022/09/18 07:18:49;;;;;;;3.10;0.60;;;;;;;9.83;95.91;99223.73;105814;1271;25252;-68
2022/09/18 07:21:20;;;;;;;2.90;0.60;;;;;;;9.84;95.59;99227.43;105861;1271;22581;-67
2022/09/18 07:23:51;;;;;;;1.70;0.50;;;;;;;9.84;95.50;99220.08;106690;1271;25352;-64
2022/09/18 07:26:22;;;;;;;2.20;0.70;;;;;;;9.85;95.52;99228.35;105749;1271;23184;-64
2022/09/18 07:28:55;;;;;;;6.10;0.80;;;;;;;9.85;95.70;99226.98;105855;1271;24363;-69
2022/09/18 07:31:26;;;;;;;4.30;0.70;;;;;;;9.87;95.75;99231.70;106082;1271;25535;-66
2022/09/18 07:33:58;;;;;;;6.20;1.20;;;;;;;9.88;95.63;99233.14;106069;1271;22567;-66
2022/09/18 07:36:29;;;;;;;3.00;1.00;;;;;;;9.89;95.94;99229.27;105986;1271;25258;-67
2022/09/18 07:39:01;;;;;;;3.60;1.20;;;;;;;9.93;95.94;99228.03;106025;1271;22549;-66
2022/09/18 07:41:33;;;;;;;3.00;1.00;;;;;;;9.95;95.86;99229.63;105901;1271;22718;-65
2022/09/18 07:44:05;;;;;;;4.20;1.30;;;;;;;9.99;96.09;99227.26;105768;1271;23078;-67
2022/09/18 07:46:37;;;;;;;6.00;1.30;;;;;;;10.05;96.49;99225.91;106023;1271;24284;-66
2022/09/18 07:49:09;;;;;;;6.90;1.50;;;;;;;10.11;96.62;99232.46;106047;1271;22560;-65
2022/09/18 07:51:42;;;;;;;5.30;1.30;;;;;;;10.18;96.93;99227.38;105894;1271;24444;-65
2022/09/18 07:54:14;;;;;;;4.60;1.50;;;;;;;10.24;96.60;99231.66;105831;1271;22519;-69
2022/09/18 07:56:46;;;;;;;5.80;1.50;;;;;;;10.29;96.79;99233.88;105934;1271;25446;-64
2022/09/18 07:59:17;;;;;;;4.90;1.40;;;;;;;10.32;96.64;99235.81;105925;1271;25318;-65
2022/09/18 08:01:50;;;;;;;6.40;1.50;;;;;;;10.35;96.36;99241.54;105989;1271;22701;-66
2022/09/18 08:04:22;;;;;;;7.20;1.40;;;;;;;10.36;96.03;99242.66;105777;1271;22724;-66
2022/09/18 08:07:02;;;;;;;4.60;1.30;;;;;;;10.38;96.10;99244.60;105754;1271;25557;-66
2022/09/18 08:09:34;;;;;;;4.70;1.80;;;;;;;10.41;96.55;99243.75;105663;1271;24256;-65
2022/09/18 08:12:06;;;;;;;6.00;1.70;;;;;;;10.46;96.51;99247.06;105636;1271;25309;-65
2022/09/18 08:14:38;;;;;;;7.20;2.10;;;;;;;10.50;96.60;99250.28;105736;1271;22542;-65
2022/09/18 08:17:09;;;;;;;6.20;1.80;;;;;;;10.54;96.49;99249.02;105851;1271;22572;-65
2022/09/18 08:19:41;;;;;;;6.50;1.50;;;;;;;10.53;96.35;99246.98;105762;1271;22538;-65
2022/09/18 08:22:13;;;;;;;4.70;0.90;;;;;;;10.52;96.18;99244.35;105762;1271;22705;-64
2022/09/18 08:24:45;;;;;;;2.90;0.90;;;;;;;10.52;95.88;99245.41;105617;1271;24953;-65
2022/09/18 08:27:17;;;;;;;2.70;0.90;;;;;;;10.51;96.02;99244.23;105792;1271;24568;-64
2022/09/18 08:29:49;;;;;;;4.50;0.90;;;;;;;10.51;95.91;99249.98;105871;1270;22557;-64
2022/09/18 08:32:21;;;;;;;2.50;0.70;;;;;;;10.52;96.20;99242.73;105791;1271;25494;-65
2022/09/18 08:34:54;;;;;;;1.90;0.60;;;;;;;10.54;96.19;99237.91;105689;1271;25105;-65
2022/09/18 08:37:27;;;;;;;3.30;0.80;;;;;;;10.54;96.60;99238.37;105697;1271;25267;-64
2022/09/18 08:40:00;;;;;;;2.90;0.80;;;;;;;10.54;96.32;99238.52;105884;1271;22541;-66
2022/09/18 08:42:44;;;;;;;3.60;0.80;;;;;;;10.55;96.37;99240.80;105703;1271;22705;-65
2022/09/18 08:45:39;;;;;;;2.40;0.90;;;;;;;10.54;96.60;99241.31;105702;1271;25234;-65
2022/09/18 08:48:16;;;;;;;2.70;1.10;;;;;;;10.53;96.63;99240.29;105969;1271;22577;-66
2022/09/18 08:50:56;;;;;;;3.70;0.60;;;;;;;10.53;96.91;99245.57;105863;1271;22547;-64
2022/09/18 08:53:31;;;;;;;;;;;;;;;10.52;96.75;99240.14;105911;1271;22531;-65
2022/09/18 08:56:07;;;;;;;2.30;0.70;;;;;;;10.52;96.69;99239.83;105788;1271;22552;-66
2022/09/18 08:58:47;;;;;;;4.40;0.70;;;;;;;10.51;96.92;99233.89;106078;1271;25570;-66
2022/09/18 09:01:24;;;;;;;2.50;0.50;;;;;;;10.51;97.09;99240.29;106881;1271;22532;-65
2022/09/18 09:04:02;;;;;;;2.60;0.40;;;;;;;10.49;97.21;99236.88;105616;1271;23571;-65
2022/09/18 09:06:49;;;;;;;1.20;0.30;;;;;;;10.49;97.33;99245.50;105599;1271;22555;-66
2022/09/18 09:09:41;;;;;;;2.00;0.90;;;;;;;10.48;97.38;99251.70;105629;1271;22559;-68
2022/09/18 09:12:22;;;;;;;1.50;0.20;;;;;;;10.44;97.38;99263.85;105522;1271;26584;-66
2022/09/18 09:15:14;;;;;;;2.00;0.10;;;;;;;10.38;97.35;99273.12;105642;1271;22620;-66
2022/09/18 09:17:57;;;;;;;3.90;0.20;;;;;;;10.30;97.08;99280.07;105846;1271;24325;-67
2022/09/18 09:20:44;;;;;;;1.60;0.20;;;;;;;10.23;96.78;99291.20;106730;1270;22566;-64
2022/09/18 09:23:27;;;;;;;3.10;0.20;;;;;;;10.16;96.96;99288.77;105650;1271;22606;-65
2022/09/18 09:26:07;;;;;;;2.40;0.20;;;;;;;10.12;97.70;99297.43;106117;1271;26433;-63
2022/09/18 09:28:50;;;;;;;1.80;0.20;;;;;;;10.05;97.33;99300.44;105771;1271;22606;-67
2022/09/18 09:31:29;;;;;;;1.00;0.20;;;;;;;9.99;97.46;99299.09;105672;1271;24237;-69
2022/09/18 09:34:11;;;;;;;0.30;0.10;;;;;;;9.99;97.72;99299.55;105915;1271;24383;-63
2022/09/18 09:36:49;;;;;;;0.60;0.20;;;;;;;9.99;98.03;99303.60;105867;1271;25437;-65
2022/09/18 09:39:28;;;;;;;0.90;0.20;;;;;;;9.99;97.94;99305.53;105902;1271;23090;-65
2022/09/18 09:42:06;;;;;;;1.00;0.20;;;;;;;9.97;97.86;99306.84;105743;1271;23151;-66
2022/09/18 09:44:46;;;;;;;1.20;0.20;;;;;;;9.96;98.13;99309.81;105552;1271;25198;-64
2022/09/18 09:47:29;;;;;;;3.90;0.40;;;;;;;9.94;98.05;99312.60;105769;1270;24288;-64
2022/09/18 09:50:17;;;;;;;1.20;0.30;;;;;;;9.96;98.25;99310.59;105938;1270;25507;-64
2022/09/18 09:52:52;;;;;;;3.50;0.40;;;;;;;10.00;98.55;99319.38;105685;1271;25181;-65
2022/09/18 09:55:30;;;;;;;2.90;0.30;;;;;;;10.08;98.76;99321.97;106013;1271;22625;-65
2022/09/18 09:58:21;;;;;;;1.60;0.30;;;;;;;10.17;98.99;99324.98;105705;1271;24309;-62
2022/09/18 10:01:01;;;;;;;2.30;0.30;;;;;;;10.26;99.18;99328.13;105663;1270;22718;-63
2022/09/18 10:03:42;;;;;;;4.40;0.30;;;;;;;10.33;99.01;99335.02;105487;1271;22579;-62
2022/09/18 10:06:26;;;;;;;3.20;0.40;;;;;;;10.38;97.98;99346.41;105601;1271;23907;-62
2022/09/18 10:09:05;;;;;;;3.70;0.60;;;;;;;10.38;97.66;99343.31;105831;1271;24257;-63
2022/09/18 10:11:41;;;;;;;5.90;0.40;;;;;;;10.35;97.47;99352.79;105741;1271;24354;-65
2022/09/18 10:14:17;;;;;;;3.30;0.40;;;;;;;10.32;97.43;99352.48;105508;1271;22548;-64
2022/09/18 10:16:53;;;;;;;3.00;0.20;;;;;;;10.28;97.11;99359.14;105799;1271;23019;-66
2022/09/18 10:19:33;;;;;;;2.40;0.30;;;;;;;10.25;97.27;99359.67;105803;1271;24306;-64
2022/09/18 10:22:10;;;;;;;4.90;0.40;;;;;;;10.24;97.48;99367.67;105631;1270;26017;-64
2022/09/18 10:24:50;;;;;;;3.40;0.40;;;;;;;10.23;97.86;99366.30;105806;1270;25355;-65
2022/09/18 10:27:23;;;;;;;3.40;0.30;;;;;;;10.20;97.81;99372.12;105755;1271;24232;-65
2022/09/18 10:29:58;;;;;;;5.00;0.30;;;;;;;10.16;97.16;99379.45;105701;1271;22567;-64
2022/09/18 10:32:40;;;;;;;1.60;0.30;;;;;;;10.12;97.34;99383.06;105543;1271;22535;-64
2022/09/18 10:35:46;;;;;;;3.10;0.40;;;;;;;10.11;97.24;99380.95;105778;1270;25264;-63
2022/09/18 10:38:38;;;;;;;2.40;0.40;;;;;;;10.11;97.75;99391.20;106084;1271;25260;-64
2022/09/18 10:41:32;;;;;;;1.50;0.30;;;;;;;10.10;97.85;99393.42;105936;1274;22557;-64
2022/09/18 10:44:25;;;;;;;3.30;0.30;;;;;;;10.07;97.70;99399.58;105824;1273;25307;-65
2022/09/18 10:47:09;;;;;;;4.10;0.50;;;;;;;10.02;97.94;99406.54;105843;1274;22549;-66
2022/09/18 10:49:52;;;;;;;7.70;0.70;;;;;;;9.97;97.61;99403.87;105638;1273;22507;-71
2022/09/18 10:52:31;;;;;;;8.40;0.80;;;;;;;9.97;97.93;99405.80;105802;1274;26344;-63
2022/09/18 10:55:15;;;;;;;4.90;1.10;;;;;;;10.00;97.97;99403.08;105996;1274;24304;-66
2022/09/18 10:58:05;;;;;;;6.20;0.80;;;;;;;10.05;98.31;99410.13;105961;1273;22652;-64
2022/09/18 11:00:42;;;;;;;5.70;1.00;;;;;;;10.11;98.05;99411.70;106254;1273;24558;-65
2022/09/18 11:03:29;;;;;;;13.30;1.80;;;;;;;10.17;98.03;99412.98;105855;1274;25375;-65
2022/09/18 11:06:03;;;;;;;6.00;1.00;;;;;;;10.25;97.99;99411.52;105864;1274;22528;-65
2022/09/18 11:08:37;;;;;;;8.00;1.50;;;;;;;10.31;98.00;99414.84;106018;1274;24771;-64
2022/09/18 11:11:12;;;;;;;7.20;1.40;;;;;;;10.38;98.48;99414.34;105836;1274;22571;-64
2022/09/18 11:13:52;;;;;;;7.30;1.20;;;;;;;10.45;98.30;99413.67;105941;1273;24274;-63
2022/09/18 11:16:29;;;;;;;8.70;1.40;;;;;;;10.48;98.27;99416.33;106689;1271;24851;-66
2022/09/18 11:19:15;;;;;;;9.40;1.90;;;;;;;10.51;98.13;99422.27;106238;1270;22545;-66
2022/09/18 11:21:54;;;;;;;8.90;1.10;;;;;;;10.50;97.78;99419.99;105981;1271;22543;-64
2022/09/18 11:24:30;;;;;;;7.50;1.50;;;;;;;10.47;97.38;99424.13;105829;1271;26636;-64
2022/09/18 11:27:03;;;;;;;6.60;1.40;;;;;;;10.42;96.93;99425.06;106034;1270;22562;-65
2022/09/18 11:29:38;;;;;;;7.60;1.40;;;;;;;10.34;96.39;99431.37;105679;1270;22531;-66
2022/09/18 11:32:20;;;;;;;6.30;1.10;;;;;;;10.26;96.48;99431.80;105733;1271;22561;-65
2022/09/18 11:34:54;;;;;;;8.60;1.30;;;;;;;10.21;96.64;99428.98;105894;1271;22562;-65
2022/09/18 11:37:31;;;;;;;13.80;1.50;;;;;;;10.21;97.46;99430.34;105652;1271;24321;-64
2022/09/18 11:40:07;;;;;;;10.10;2.10;;;;;;;10.20;97.08;99427.04;105814;1271;22551;-63
2022/09/18 11:42:48;;;;;;;12.20;1.60;;;;;;;10.20;97.34;99428.46;105732;1271;22575;-64
2022/09/18 11:45:35;;;;;;;16.80;1.70;;;;;;;10.21;97.25;99429.27;105820;1271;25266;-64
2022/09/18 11:48:18;;;;;;;9.60;1.40;;;;;;;10.26;97.44;99425.86;105755;1270;24342;-66
2022/09/18 11:50:55;;;;;;;10.30;1.40;;;;;;;10.32;97.62;99421.09;105684;1271;25365;-65
2022/09/18 11:53:29;;;;;;;12.70;1.50;;;;;;;10.40;97.94;99425.16;106083;1270;25330;-66
2022/09/18 11:56:07;;;;;;;11.40;1.40;;;;;;;10.49;98.02;99423.48;105891;1271;22564;-65
2022/09/18 11:58:45;;;;;;;11.10;1.80;;;;;;;10.53;97.37;99422.70;105918;1270;22576;-66
2022/09/18 12:01:26;;;;;;;15.50;2.10;;;;;;;10.57;97.10;99417.23;105810;1271;25245;-66
2022/09/18 12:04:06;;;;;;;10.10;1.30;;;;;;;10.63;97.18;99417.67;105897;1271;22553;-66
2022/09/18 12:06:44;;;;;;;6.20;1.70;;;;;;;10.67;96.65;99414.25;105764;1271;22548;-67
2022/09/18 12:09:23;;;;;;;9.00;1.50;;;;;;;10.68;95.52;99422.98;105639;1271;22537;-68